sensor_id;sensor_type;location;lat;lon;timestamp;P1;durP1;ratioP1;P2;durP2;ratioP2
29338;SDS011;16335;52.334;13.628;2022-07-23T00:01:22;7.53;;;6.72;;
29338;SDS011;16335;52.334;13.628;2022-07-23T00:03:48;7.78;;;6.97;;
29338;SDS011;16335;52.334;13.628;2022-07-23T00:06:15;7.50;;;6.80;;
29338;SDS011;16335;52.334;13.628;2022-07-23T00:08:41;9.80;;;7.15;;
29338;SDS011;16335;52.334;13.628;2022-07-23T00:11:07;9.98;;;7.00;;
29338;SDS011;16335;52.334;13.628;2022-07-23T00:13:33;10.57;;;7.57;;
29338;SDS011;16335;52.334;13.628;2022-07-23T00:16:01;10.50;;;7.25;;
29338;SDS011;16335;52.334;13.628;2022-07-23T00:18:27;9.90;;;7.38;;
29338;SDS011;16335;52.334;13.628;2022-07-23T00:20:53;9.05;;;7.32;;
29338;SDS011;16335;52.334;13.628;2022-07-23T00:23:18;7.40;;;6.70;;
29338;SDS011;16335;52.334;13.628;2022-07-23T00:25:44;8.57;;;7.53;;
29338;SDS011;16335;52.334;13.628;2022-07-23T00:28:12;8.32;;;7.53;;
29338;SDS011;16335;52.334;13.628;2022-07-23T00:30:37;8.35;;;6.90;;
29338;SDS011;16335;52.334;13.628;2022-07-23T00:33:05;9.05;;;6.57;;
29338;SDS011;16335;52.334;13.628;2022-07-23T00:35:33;9.93;;;6.90;;
29338;SDS011;16335;52.334;13.628;2022-07-23T00:38:02;9.77;;;6.80;;
29338;SDS011;16335;52.334;13.628;2022-07-23T00:40:30;7.60;;;6.90;;
29338;SDS011;16335;52.334;13.628;2022-07-23T00:42:57;7.88;;;7.07;;
29338;SDS011;16335;52.334;13.628;2022-07-23T00:45:25;9.43;;;7.07;;
29338;SDS011;16335;52.334;13.628;2022-07-23T00:47:51;9.65;;;7.28;;
29338;SDS011;16335;52.334;13.628;2022-07-23T00:50:17;8.13;;;7.32;;
29338;SDS011;16335;52.334;13.628;2022-07-23T00:52:43;7.85;;;7.10;;
29338;SDS011;16335;52.334;13.628;2022-07-23T00:55:09;7.65;;;6.75;;
29338;SDS011;16335;52.334;13.628;2022-07-23T00:57:37;8.43;;;6.90;;
29338;SDS011;16335;52.334;13.628;2022-07-23T01:00:04;8.93;;;7.22;;
29338;SDS011;16335;52.334;13.628;2022-07-23T01:02:32;8.13;;;7.28;;
29338;SDS011;16335;52.334;13.628;2022-07-23T01:04:58;9.80;;;7.05;;
29338;SDS011;16335;52.334;13.628;2022-07-23T01:07:23;7.90;;;7.20;;
29338;SDS011;16335;52.334;13.628;2022-07-23T01:09:49;9.35;;;7.50;;
29338;SDS011;16335;52.334;13.628;2022-07-23T01:12:16;8.23;;;7.10;;
29338;SDS011;16335;52.334;13.628;2022-07-23T01:14:42;8.30;;;7.10;;
29338;SDS011;16335;52.334;13.628;2022-07-23T01:17:08;9.40;;;7.72;;
29338;SDS011;16335;52.334;13.628;2022-07-23T01:19:34;9.38;;;7.35;;
29338;SDS011;16335;52.334;13.628;2022-07-23T01:22:02;8.38;;;7.38;;
29338;SDS011;16335;52.334;13.628;2022-07-23T01:24:29;7.80;;;6.80;;
29338;SDS011;16335;52.334;13.628;2022-07-23T01:26:54;8.02;;;7.05;;
29338;SDS011;16335;52.334;13.628;2022-07-23T01:29:20;8.38;;;7.43;;
29338;SDS011;16335;52.334;13.628;2022-07-23T01:31:47;9.70;;;7.53;;
29338;SDS011;16335;52.334;13.628;2022-07-23T01:34:13;11.80;;;8.18;;
29338;SDS011;16335;52.334;13.628;2022-07-23T01:36:39;9.50;;;7.65;;
29338;SDS011;16335;52.334;13.628;2022-07-23T01:39:06;8.70;;;7.57;;
29338;SDS011;16335;52.334;13.628;2022-07-23T01:41:33;10.65;;;7.95;;
29338;SDS011;16335;52.334;13.628;2022-07-23T01:43:59;9.25;;;8.30;;
29338;SDS011;16335;52.334;13.628;2022-07-23T01:46:24;8.02;;;7.22;;
29338;SDS011;16335;52.334;13.628;2022-07-23T01:48:51;10.05;;;7.18;;
29338;SDS011;16335;52.334;13.628;2022-07-23T01:51:20;8.52;;;7.65;;
29338;SDS011;16335;52.334;13.628;2022-07-23T01:53:46;8.68;;;7.50;;
29338;SDS011;16335;52.334;13.628;2022-07-23T01:56:12;8.95;;;8.15;;
29338;SDS011;16335;52.334;13.628;2022-07-23T01:58:39;11.68;;;7.90;;
29338;SDS011;16335;52.334;13.628;2022-07-23T02:01:05;8.30;;;7.45;;
29338;SDS011;16335;52.334;13.628;2022-07-23T02:03:31;10.70;;;7.90;;
29338;SDS011;16335;52.334;13.628;2022-07-23T02:05:57;9.02;;;8.18;;
29338;SDS011;16335;52.334;13.628;2022-07-23T02:08:24;12.45;;;8.10;;
29338;SDS011;16335;52.334;13.628;2022-07-23T02:10:50;9.80;;;7.82;;
29338;SDS011;16335;52.334;13.628;2022-07-23T02:13:18;10.20;;;8.43;;
29338;SDS011;16335;52.334;13.628;2022-07-23T02:15:45;9.93;;;8.18;;
29338;SDS011;16335;52.334;13.628;2022-07-23T02:18:12;8.80;;;7.90;;
29338;SDS011;16335;52.334;13.628;2022-07-23T02:20:37;9.20;;;7.97;;
29338;SDS011;16335;52.334;13.628;2022-07-23T02:23:03;10.68;;;7.93;;
29338;SDS011;16335;52.334;13.628;2022-07-23T02:25:30;8.40;;;7.60;;
29338;SDS011;16335;52.334;13.628;2022-07-23T02:27:56;9.98;;;8.18;;
29338;SDS011;16335;52.334;13.628;2022-07-23T02:30:22;9.93;;;8.43;;
29338;SDS011;16335;52.334;13.628;2022-07-23T02:32:49;10.02;;;7.90;;
29338;SDS011;16335;52.334;13.628;2022-07-23T02:35:14;10.07;;;8.10;;
29338;SDS011;16335;52.334;13.628;2022-07-23T02:37:41;10.30;;;7.65;;
29338;SDS011;16335;52.334;13.628;2022-07-23T02:40:07;9.13;;;8.15;;
29338;SDS011;16335;52.334;13.628;2022-07-23T02:42:33;11.35;;;8.52;;
29338;SDS011;16335;52.334;13.628;2022-07-23T02:45:00;11.07;;;8.63;;
29338;SDS011;16335;52.334;13.628;2022-07-23T02:47:27;9.75;;;8.57;;
29338;SDS011;16335;52.334;13.628;2022-07-23T02:49:53;9.80;;;8.55;;
29338;SDS011;16335;52.334;13.628;2022-07-23T02:52:23;10.82;;;8.38;;
29338;SDS011;16335;52.334;13.628;2022-07-23T02:54:48;11.07;;;8.30;;
29338;SDS011;16335;52.334;13.628;2022-07-23T02:57:14;11.95;;;8.90;;
29338;SDS011;16335;52.334;13.628;2022-07-23T02:59:40;9.13;;;8.15;;
29338;SDS011;16335;52.334;13.628;2022-07-23T03:02:06;11.10;;;8.38;;
29338;SDS011;16335;52.334;13.628;2022-07-23T03:04:32;10.40;;;8.68;;
29338;SDS011;16335;52.334;13.628;2022-07-23T03:06:58;11.10;;;8.77;;
29338;SDS011;16335;52.334;13.628;2022-07-23T03:09:24;12.20;;;9.00;;
29338;SDS011;16335;52.334;13.628;2022-07-23T03:11:51;9.73;;;8.73;;
29338;SDS011;16335;52.334;13.628;2022-07-23T03:14:17;11.52;;;10.38;;
29338;SDS011;16335;52.334;13.628;2022-07-23T03:16:45;9.55;;;8.60;;
29338;SDS011;16335;52.334;13.628;2022-07-23T03:19:10;10.25;;;8.65;;
29338;SDS011;16335;52.334;13.628;2022-07-23T03:21:36;10.25;;;9.07;;
29338;SDS011;16335;52.334;13.628;2022-07-23T03:24:05;10.25;;;8.93;;
29338;SDS011;16335;52.334;13.628;2022-07-23T03:26:32;9.50;;;8.20;;
29338;SDS011;16335;52.334;13.628;2022-07-23T03:28:57;11.73;;;8.73;;
29338;SDS011;16335;52.334;13.628;2022-07-23T03:31:23;9.32;;;7.97;;
29338;SDS011;16335;52.334;13.628;2022-07-23T03:33:49;10.80;;;9.70;;
29338;SDS011;16335;52.334;13.628;2022-07-23T03:36:15;9.20;;;8.07;;
29338;SDS011;16335;52.334;13.628;2022-07-23T03:38:42;10.18;;;8.60;;
29338;SDS011;16335;52.334;13.628;2022-07-23T03:41:08;9.48;;;8.10;;
29338;SDS011;16335;52.334;13.628;2022-07-23T03:43:34;10.95;;;8.57;;
29338;SDS011;16335;52.334;13.628;2022-07-23T03:46:00;10.90;;;8.82;;
29338;SDS011;16335;52.334;13.628;2022-07-23T03:48:26;10.13;;;9.00;;
29338;SDS011;16335;52.334;13.628;2022-07-23T03:50:51;9.48;;;7.95;;
29338;SDS011;16335;52.334;13.628;2022-07-23T03:53:20;10.63;;;8.90;;
29338;SDS011;16335;52.334;13.628;2022-07-23T03:55:45;9.88;;;8.20;;
29338;SDS011;16335;52.334;13.628;2022-07-23T03:58:14;11.15;;;8.70;;
29338;SDS011;16335;52.334;13.628;2022-07-23T04:00:40;9.95;;;7.82;;
29338;SDS011;16335;52.334;13.628;2022-07-23T04:03:06;12.02;;;8.80;;
29338;SDS011;16335;52.334;13.628;2022-07-23T04:05:32;9.18;;;8.23;;
29338;SDS011;16335;52.334;13.628;2022-07-23T04:08:00;9.98;;;8.40;;
29338;SDS011;16335;52.334;13.628;2022-07-23T04:10:25;9.40;;;8.52;;
29338;SDS011;16335;52.334;13.628;2022-07-23T04:12:51;10.63;;;9.18;;
29338;SDS011;16335;52.334;13.628;2022-07-23T04:15:17;12.40;;;8.63;;
29338;SDS011;16335;52.334;13.628;2022-07-23T04:17:47;13.07;;;9.30;;
29338;SDS011;16335;52.334;13.628;2022-07-23T04:20:13;9.90;;;8.63;;
29338;SDS011;16335;52.334;13.628;2022-07-23T04:22:39;13.07;;;9.13;;
29338;SDS011;16335;52.334;13.628;2022-07-23T04:25:05;10.40;;;8.45;;
29338;SDS011;16335;52.334;13.628;2022-07-23T04:27:31;9.48;;;8.15;;
29338;SDS011;16335;52.334;13.628;2022-07-23T04:29:58;10.98;;;8.57;;
29338;SDS011;16335;52.334;13.628;2022-07-23T04:32:24;9.93;;;8.80;;
29338;SDS011;16335;52.334;13.628;2022-07-23T04:34:49;12.15;;;8.35;;
29338;SDS011;16335;52.334;13.628;2022-07-23T04:37:18;9.55;;;7.70;;
29338;SDS011;16335;52.334;13.628;2022-07-23T04:39:44;13.50;;;8.13;;
29338;SDS011;16335;52.334;13.628;2022-07-23T04:42:10;12.55;;;8.07;;
29338;SDS011;16335;52.334;13.628;2022-07-23T04:44:35;10.48;;;7.47;;
29338;SDS011;16335;52.334;13.628;2022-07-23T04:47:01;9.18;;;8.20;;
29338;SDS011;16335;52.334;13.628;2022-07-23T04:49:27;13.52;;;8.80;;
29338;SDS011;16335;52.334;13.628;2022-07-23T04:51:54;9.43;;;8.38;;
29338;SDS011;16335;52.334;13.628;2022-07-23T04:54:20;11.70;;;8.98;;
29338;SDS011;16335;52.334;13.628;2022-07-23T04:56:48;10.32;;;8.20;;
29338;SDS011;16335;52.334;13.628;2022-07-23T04:59:14;9.77;;;8.30;;
29338;SDS011;16335;52.334;13.628;2022-07-23T05:01:43;10.25;;;8.07;;
29338;SDS011;16335;52.334;13.628;2022-07-23T05:04:08;13.38;;;8.82;;
29338;SDS011;16335;52.334;13.628;2022-07-23T05:06:34;9.25;;;8.35;;
29338;SDS011;16335;52.334;13.628;2022-07-23T05:09:00;11.57;;;8.23;;
29338;SDS011;16335;52.334;13.628;2022-07-23T05:11:26;12.40;;;9.48;;
29338;SDS011;16335;52.334;13.628;2022-07-23T05:13:52;11.85;;;9.05;;
29338;SDS011;16335;52.334;13.628;2022-07-23T05:16:18;10.20;;;9.00;;
29338;SDS011;16335;52.334;13.628;2022-07-23T05:18:44;12.88;;;8.77;;
29338;SDS011;16335;52.334;13.628;2022-07-23T05:21:11;11.35;;;9.18;;
29338;SDS011;16335;52.334;13.628;2022-07-23T05:23:38;13.30;;;8.48;;
29338;SDS011;16335;52.334;13.628;2022-07-23T05:26:04;9.40;;;8.32;;
29338;SDS011;16335;52.334;13.628;2022-07-23T05:28:30;18.80;;;10.55;;
29338;SDS011;16335;52.334;13.628;2022-07-23T05:30:55;19.77;;;9.80;;
29338;SDS011;16335;52.334;13.628;2022-07-23T05:33:21;14.02;;;10.27;;
29338;SDS011;16335;52.334;13.628;2022-07-23T05:35:47;27.92;;;12.02;;
29338;SDS011;16335;52.334;13.628;2022-07-23T05:38:13;27.83;;;11.27;;
29338;SDS011;16335;52.334;13.628;2022-07-23T05:40:38;41.28;;;13.35;;
29338;SDS011;16335;52.334;13.628;2022-07-23T05:43:04;21.50;;;10.60;;
29338;SDS011;16335;52.334;13.628;2022-07-23T05:45:30;13.38;;;10.00;;
29338;SDS011;16335;52.334;13.628;2022-07-23T05:47:55;24.73;;;10.95;;
29338;SDS011;16335;52.334;13.628;2022-07-23T05:50:21;11.45;;;9.63;;
29338;SDS011;16335;52.334;13.628;2022-07-23T05:52:47;14.48;;;9.30;;
29338;SDS011;16335;52.334;13.628;2022-07-23T05:55:13;16.08;;;10.57;;
29338;SDS011;16335;52.334;13.628;2022-07-23T05:57:40;16.77;;;9.13;;
29338;SDS011;16335;52.334;13.628;2022-07-23T06:00:07;13.70;;;9.82;;
29338;SDS011;16335;52.334;13.628;2022-07-23T06:02:34;14.60;;;9.90;;
29338;SDS011;16335;52.334;13.628;2022-07-23T06:05:00;11.38;;;9.38;;
29338;SDS011;16335;52.334;13.628;2022-07-23T06:07:26;11.98;;;8.70;;
29338;SDS011;16335;52.334;13.628;2022-07-23T06:09:52;10.85;;;8.65;;
29338;SDS011;16335;52.334;13.628;2022-07-23T06:12:17;13.20;;;8.23;;
29338;SDS011;16335;52.334;13.628;2022-07-23T06:14:43;15.20;;;8.93;;
29338;SDS011;16335;52.334;13.628;2022-07-23T06:17:09;14.20;;;8.65;;
29338;SDS011;16335;52.334;13.628;2022-07-23T06:19:37;11.60;;;8.13;;
29338;SDS011;16335;52.334;13.628;2022-07-23T06:22:03;12.55;;;8.45;;
29338;SDS011;16335;52.334;13.628;2022-07-23T06:24:29;14.13;;;8.45;;
29338;SDS011;16335;52.334;13.628;2022-07-23T06:26:55;12.35;;;8.02;;
29338;SDS011;16335;52.334;13.628;2022-07-23T06:29:22;12.23;;;7.70;;
29338;SDS011;16335;52.334;13.628;2022-07-23T06:31:47;10.43;;;7.57;;
29338;SDS011;16335;52.334;13.628;2022-07-23T06:34:13;9.52;;;6.85;;
29338;SDS011;16335;52.334;13.628;2022-07-23T06:36:39;10.15;;;7.38;;
29338;SDS011;16335;52.334;13.628;2022-07-23T06:39:05;14.48;;;6.85;;
29338;SDS011;16335;52.334;13.628;2022-07-23T06:41:30;9.85;;;7.55;;
29338;SDS011;16335;52.334;13.628;2022-07-23T06:43:56;9.82;;;6.30;;
29338;SDS011;16335;52.334;13.628;2022-07-23T06:46:22;11.30;;;7.45;;
29338;SDS011;16335;52.334;13.628;2022-07-23T06:48:48;10.13;;;7.57;;
29338;SDS011;16335;52.334;13.628;2022-07-23T06:51:15;7.72;;;6.32;;
29338;SDS011;16335;52.334;13.628;2022-07-23T06:53:40;10.38;;;6.70;;
29338;SDS011;16335;52.334;13.628;2022-07-23T06:56:06;11.45;;;6.93;;
29338;SDS011;16335;52.334;13.628;2022-07-23T06:58:33;9.70;;;6.78;;
29338;SDS011;16335;52.334;13.628;2022-07-23T07:00:59;13.38;;;7.05;;
29338;SDS011;16335;52.334;13.628;2022-07-23T07:03:25;12.18;;;7.47;;
29338;SDS011;16335;52.334;13.628;2022-07-23T07:05:51;10.40;;;6.97;;
29338;SDS011;16335;52.334;13.628;2022-07-23T07:08:18;11.05;;;6.03;;
29338;SDS011;16335;52.334;13.628;2022-07-23T07:10:43;12.05;;;7.10;;
29338;SDS011;16335;52.334;13.628;2022-07-23T07:13:09;7.72;;;6.43;;
29338;SDS011;16335;52.334;13.628;2022-07-23T07:15:35;12.27;;;7.30;;
29338;SDS011;16335;52.334;13.628;2022-07-23T07:18:01;11.13;;;7.20;;
29338;SDS011;16335;52.334;13.628;2022-07-23T07:20:26;9.85;;;6.72;;
29338;SDS011;16335;52.334;13.628;2022-07-23T07:22:52;7.70;;;5.72;;
29338;SDS011;16335;52.334;13.628;2022-07-23T07:25:18;10.75;;;5.80;;
29338;SDS011;16335;52.334;13.628;2022-07-23T07:27:44;10.80;;;6.32;;
29338;SDS011;16335;52.334;13.628;2022-07-23T07:30:10;7.20;;;5.78;;
29338;SDS011;16335;52.334;13.628;2022-07-23T07:32:36;6.82;;;6.10;;
29338;SDS011;16335;52.334;13.628;2022-07-23T07:35:03;8.82;;;6.03;;
29338;SDS011;16335;52.334;13.628;2022-07-23T07:37:29;11.82;;;5.97;;
29338;SDS011;16335;52.334;13.628;2022-07-23T07:39:55;10.20;;;5.82;;
29338;SDS011;16335;52.334;13.628;2022-07-23T07:42:21;9.30;;;5.68;;
29338;SDS011;16335;52.334;13.628;2022-07-23T07:44:46;8.38;;;6.35;;
29338;SDS011;16335;52.334;13.628;2022-07-23T07:47:12;14.68;;;7.25;;
29338;SDS011;16335;52.334;13.628;2022-07-23T07:49:40;10.50;;;6.35;;
29338;SDS011;16335;52.334;13.628;2022-07-23T07:52:05;12.18;;;7.07;;
29338;SDS011;16335;52.334;13.628;2022-07-23T07:54:31;8.65;;;6.55;;
29338;SDS011;16335;52.334;13.628;2022-07-23T07:56:57;11.40;;;6.80;;
29338;SDS011;16335;52.334;13.628;2022-07-23T07:59:23;11.45;;;7.47;;
29338;SDS011;16335;52.334;13.628;2022-07-23T08:01:49;9.73;;;7.03;;
29338;SDS011;16335;52.334;13.628;2022-07-23T08:04:14;9.48;;;7.18;;
29338;SDS011;16335;52.334;13.628;2022-07-23T08:06:40;11.02;;;7.90;;
29338;SDS011;16335;52.334;13.628;2022-07-23T08:09:06;9.25;;;6.78;;
29338;SDS011;16335;52.334;13.628;2022-07-23T08:11:31;12.48;;;7.38;;
29338;SDS011;16335;52.334;13.628;2022-07-23T08:13:57;10.95;;;6.53;;
29338;SDS011;16335;52.334;13.628;2022-07-23T08:16:23;9.73;;;7.47;;
29338;SDS011;16335;52.334;13.628;2022-07-23T08:18:48;11.27;;;7.25;;
29338;SDS011;16335;52.334;13.628;2022-07-23T08:21:14;9.68;;;6.00;;
29338;SDS011;16335;52.334;13.628;2022-07-23T08:23:40;7.60;;;5.70;;
29338;SDS011;16335;52.334;13.628;2022-07-23T08:26:06;10.27;;;6.10;;
29338;SDS011;16335;52.334;13.628;2022-07-23T08:28:32;7.97;;;6.13;;
29338;SDS011;16335;52.334;13.628;2022-07-23T08:30:58;10.43;;;6.68;;
29338;SDS011;16335;52.334;13.628;2022-07-23T08:33:24;8.60;;;5.63;;
29338;SDS011;16335;52.334;13.628;2022-07-23T08:35:51;8.05;;;5.93;;
29338;SDS011;16335;52.334;13.628;2022-07-23T08:38:18;7.30;;;5.40;;
29338;SDS011;16335;52.334;13.628;2022-07-23T08:40:46;6.78;;;5.70;;
29338;SDS011;16335;52.334;13.628;2022-07-23T08:43:19;5.80;;;5.28;;
29338;SDS011;16335;52.334;13.628;2022-07-23T08:45:48;6.80;;;5.33;;
29338;SDS011;16335;52.334;13.628;2022-07-23T08:48:17;11.13;;;5.50;;
29338;SDS011;16335;52.334;13.628;2022-07-23T08:50:45;8.43;;;5.47;;
29338;SDS011;16335;52.334;13.628;2022-07-23T08:53:13;6.50;;;4.90;;
29338;SDS011;16335;52.334;13.628;2022-07-23T08:55:39;9.38;;;5.65;;
29338;SDS011;16335;52.334;13.628;2022-07-23T08:58:11;9.50;;;5.60;;
29338;SDS011;16335;52.334;13.628;2022-07-23T09:00:37;8.52;;;5.32;;
29338;SDS011;16335;52.334;13.628;2022-07-23T09:03:02;8.32;;;5.60;;
29338;SDS011;16335;52.334;13.628;2022-07-23T09:05:31;7.57;;;4.88;;
29338;SDS011;16335;52.334;13.628;2022-07-23T09:08:07;10.32;;;5.88;;
29338;SDS011;16335;52.334;13.628;2022-07-23T09:13:31;6.47;;;4.72;;
29338;SDS011;16335;52.334;13.628;2022-07-23T09:15:58;10.48;;;5.15;;
29338;SDS011;16335;52.334;13.628;2022-07-23T09:18:30;10.85;;;5.55;;
29338;SDS011;16335;52.334;13.628;2022-07-23T09:21:07;6.55;;;4.80;;
29338;SDS011;16335;52.334;13.628;2022-07-23T09:23:40;7.78;;;5.57;;
29338;SDS011;16335;52.334;13.628;2022-07-23T09:26:19;9.15;;;5.25;;
29338;SDS011;16335;52.334;13.628;2022-07-23T09:28:52;5.88;;;5.18;;
29338;SDS011;16335;52.334;13.628;2022-07-23T09:31:22;10.05;;;5.30;;
29338;SDS011;16335;52.334;13.628;2022-07-23T09:33:49;10.68;;;5.25;;
29338;SDS011;16335;52.334;13.628;2022-07-23T09:36:15;6.68;;;5.13;;
29338;SDS011;16335;52.334;13.628;2022-07-23T09:38:50;8.15;;;4.88;;
29338;SDS011;16335;52.334;13.628;2022-07-23T09:41:16;6.05;;;5.25;;
29338;SDS011;16335;52.334;13.628;2022-07-23T09:43:42;6.15;;;4.75;;
29338;SDS011;16335;52.334;13.628;2022-07-23T09:46:21;6.50;;;5.10;;
29338;SDS011;16335;52.334;13.628;2022-07-23T09:48:49;8.20;;;5.10;;
29338;SDS011;16335;52.334;13.628;2022-07-23T09:51:18;5.82;;;5.18;;
29338;SDS011;16335;52.334;13.628;2022-07-23T09:53:49;7.18;;;4.80;;
29338;SDS011;16335;52.334;13.628;2022-07-23T09:56:15;7.97;;;5.50;;
29338;SDS011;16335;52.334;13.628;2022-07-23T09:58:41;8.63;;;5.57;;
29338;SDS011;16335;52.334;13.628;2022-07-23T10:01:12;8.98;;;6.43;;
29338;SDS011;16335;52.334;13.628;2022-07-23T10:03:39;9.15;;;6.75;;
29338;SDS011;16335;52.334;13.628;2022-07-23T10:06:06;8.10;;;6.28;;
29338;SDS011;16335;52.334;13.628;2022-07-23T10:08:33;9.55;;;6.85;;
29338;SDS011;16335;52.334;13.628;2022-07-23T10:11:00;10.50;;;7.32;;
29338;SDS011;16335;52.334;13.628;2022-07-23T10:13:26;9.77;;;6.25;;
29338;SDS011;16335;52.334;13.628;2022-07-23T10:16:11;9.02;;;6.68;;
29338;SDS011;16335;52.334;13.628;2022-07-23T10:18:38;11.52;;;6.68;;
29338;SDS011;16335;52.334;13.628;2022-07-23T10:21:05;7.72;;;6.85;;
29338;SDS011;16335;52.334;13.628;2022-07-23T10:23:39;7.88;;;6.97;;
29338;SDS011;16335;52.334;13.628;2022-07-23T10:26:10;9.57;;;6.47;;
29338;SDS011;16335;52.334;13.628;2022-07-23T10:28:44;12.20;;;6.28;;
29338;SDS011;16335;52.334;13.628;2022-07-23T10:31:26;8.63;;;6.80;;
29338;SDS011;16335;52.334;13.628;2022-07-23T10:36:56;7.53;;;5.18;;
29338;SDS011;16335;52.334;13.628;2022-07-23T10:39:28;10.18;;;6.50;;
29338;SDS011;16335;52.334;13.628;2022-07-23T10:44:39;8.57;;;5.57;;
29338;SDS011;16335;52.334;13.628;2022-07-23T10:47:07;10.10;;;5.97;;
29338;SDS011;16335;52.334;13.628;2022-07-23T10:49:48;9.88;;;5.93;;
29338;SDS011;16335;52.334;13.628;2022-07-23T10:54:56;9.45;;;5.40;;
29338;SDS011;16335;52.334;13.628;2022-07-23T10:57:28;9.60;;;5.28;;
29338;SDS011;16335;52.334;13.628;2022-07-23T11:02:34;7.20;;;4.72;;
29338;SDS011;16335;52.334;13.628;2022-07-23T11:05:03;9.30;;;4.88;;
29338;SDS011;16335;52.334;13.628;2022-07-23T11:07:34;7.60;;;4.93;;
29338;SDS011;16335;52.334;13.628;2022-07-23T11:10:01;6.45;;;4.10;;
29338;SDS011;16335;52.334;13.628;2022-07-23T11:17:37;5.85;;;4.53;;
29338;SDS011;16335;52.334;13.628;2022-07-23T11:23:17;6.28;;;4.60;;
29338;SDS011;16335;52.334;13.628;2022-07-23T11:27:50;4.93;;;3.80;;
29338;SDS011;16335;52.334;13.628;2022-07-23T11:32:52;3.38;;;3.08;;
29338;SDS011;16335;52.334;13.628;2022-07-23T11:35:23;4.40;;;4.00;;
29338;SDS011;16335;52.334;13.628;2022-07-23T11:37:51;5.38;;;3.38;;
29338;SDS011;16335;52.334;13.628;2022-07-23T11:40:23;4.55;;;3.30;;
29338;SDS011;16335;52.334;13.628;2022-07-23T11:45:21;5.72;;;3.58;;
29338;SDS011;16335;52.334;13.628;2022-07-23T11:47:46;5.50;;;3.00;;
29338;SDS011;16335;52.334;13.628;2022-07-23T11:50:12;4.68;;;3.20;;
29338;SDS011;16335;52.334;13.628;2022-07-23T11:52:38;5.47;;;3.35;;
29338;SDS011;16335;52.334;13.628;2022-07-23T11:55:05;3.63;;;2.95;;
29338;SDS011;16335;52.334;13.628;2022-07-23T11:57:35;4.25;;;2.88;;
29338;SDS011;16335;52.334;13.628;2022-07-23T12:00:10;4.78;;;2.83;;
29338;SDS011;16335;52.334;13.628;2022-07-23T12:02:39;5.40;;;3.00;;
29338;SDS011;16335;52.334;13.628;2022-07-23T12:05:10;3.05;;;2.38;;
29338;SDS011;16335;52.334;13.628;2022-07-23T12:07:39;6.10;;;3.20;;
29338;SDS011;16335;52.334;13.628;2022-07-23T12:10:10;5.25;;;3.05;;
29338;SDS011;16335;52.334;13.628;2022-07-23T12:12:40;3.15;;;2.85;;
29338;SDS011;16335;52.334;13.628;2022-07-23T12:15:07;5.18;;;3.00;;
29338;SDS011;16335;52.334;13.628;2022-07-23T12:17:34;3.70;;;3.30;;
29338;SDS011;16335;52.334;13.628;2022-07-23T12:20:02;9.52;;;3.75;;
29338;SDS011;16335;52.334;13.628;2022-07-23T12:22:43;4.13;;;3.17;;
29338;SDS011;16335;52.334;13.628;2022-07-23T12:25:12;5.50;;;3.50;;
29338;SDS011;16335;52.334;13.628;2022-07-23T12:27:40;4.72;;;3.50;;
29338;SDS011;16335;52.334;13.628;2022-07-23T12:33:09;5.47;;;3.22;;
29338;SDS011;16335;52.334;13.628;2022-07-23T12:35:37;5.47;;;3.42;;
29338;SDS011;16335;52.334;13.628;2022-07-23T12:38:11;4.03;;;2.97;;
29338;SDS011;16335;52.334;13.628;2022-07-23T12:40:48;4.38;;;3.70;;
29338;SDS011;16335;52.334;13.628;2022-07-23T12:43:30;6.05;;;2.95;;
29338;SDS011;16335;52.334;13.628;2022-07-23T12:48:35;5.95;;;3.65;;
29338;SDS011;16335;52.334;13.628;2022-07-23T12:53:47;3.67;;;3.20;;
29338;SDS011;16335;52.334;13.628;2022-07-23T12:56:16;6.55;;;4.10;;
29338;SDS011;16335;52.334;13.628;2022-07-23T12:58:44;5.07;;;3.70;;
29338;SDS011;16335;52.334;13.628;2022-07-23T13:03:54;5.07;;;3.88;;
29338;SDS011;16335;52.334;13.628;2022-07-23T13:06:21;4.40;;;3.92;;
29338;SDS011;16335;52.334;13.628;2022-07-23T13:08:47;4.95;;;3.50;;
29338;SDS011;16335;52.334;13.628;2022-07-23T13:11:12;6.18;;;4.30;;
29338;SDS011;16335;52.334;13.628;2022-07-23T13:13:38;4.10;;;3.80;;
29338;SDS011;16335;52.334;13.628;2022-07-23T13:16:04;4.18;;;3.72;;
29338;SDS011;16335;52.334;13.628;2022-07-23T13:18:30;5.22;;;3.75;;
29338;SDS011;16335;52.334;13.628;2022-07-23T13:20:56;4.32;;;3.72;;
29338;SDS011;16335;52.334;13.628;2022-07-23T13:23:22;4.57;;;3.25;;
29338;SDS011;16335;52.334;13.628;2022-07-23T13:25:48;5.72;;;4.07;;
29338;SDS011;16335;52.334;13.628;2022-07-23T13:28:15;4.07;;;3.67;;
29338;SDS011;16335;52.334;13.628;2022-07-23T13:30:41;5.40;;;3.55;;
29338;SDS011;16335;52.334;13.628;2022-07-23T13:33:08;4.15;;;3.80;;
29338;SDS011;16335;52.334;13.628;2022-07-23T13:35:34;6.18;;;3.90;;
29338;SDS011;16335;52.334;13.628;2022-07-23T13:38:01;6.93;;;3.65;;
29338;SDS011;16335;52.334;13.628;2022-07-23T13:40:28;4.32;;;3.65;;
29338;SDS011;16335;52.334;13.628;2022-07-23T13:42:54;3.35;;;3.10;;
29338;SDS011;16335;52.334;13.628;2022-07-23T13:45:20;4.05;;;3.50;;
29338;SDS011;16335;52.334;13.628;2022-07-23T13:47:45;6.03;;;4.32;;
29338;SDS011;16335;52.334;13.628;2022-07-23T13:50:11;4.07;;;3.78;;
29338;SDS011;16335;52.334;13.628;2022-07-23T13:52:37;4.13;;;3.67;;
29338;SDS011;16335;52.334;13.628;2022-07-23T13:55:04;4.78;;;3.70;;
29338;SDS011;16335;52.334;13.628;2022-07-23T13:57:30;5.28;;;3.58;;
29338;SDS011;16335;52.334;13.628;2022-07-23T13:59:57;5.35;;;3.58;;
29338;SDS011;16335;52.334;13.628;2022-07-23T14:02:24;3.90;;;3.50;;
29338;SDS011;16335;52.334;13.628;2022-07-23T14:04:51;4.32;;;3.22;;
29338;SDS011;16335;52.334;13.628;2022-07-23T14:07:17;4.35;;;3.42;;
29338;SDS011;16335;52.334;13.628;2022-07-23T14:09:43;3.70;;;3.20;;
29338;SDS011;16335;52.334;13.628;2022-07-23T14:12:09;4.20;;;3.40;;
29338;SDS011;16335;52.334;13.628;2022-07-23T14:14:35;3.75;;;3.33;;
29338;SDS011;16335;52.334;13.628;2022-07-23T14:17:01;4.95;;;4.03;;
29338;SDS011;16335;52.334;13.628;2022-07-23T14:19:27;3.92;;;3.60;;
29338;SDS011;16335;52.334;13.628;2022-07-23T14:21:52;6.35;;;4.20;;
29338;SDS011;16335;52.334;13.628;2022-07-23T14:24:18;5.03;;;3.92;;
29338;SDS011;16335;52.334;13.628;2022-07-23T14:26:44;5.80;;;4.05;;
29338;SDS011;16335;52.334;13.628;2022-07-23T14:29:11;4.32;;;3.92;;
29338;SDS011;16335;52.334;13.628;2022-07-23T14:31:36;7.18;;;3.90;;
29338;SDS011;16335;52.334;13.628;2022-07-23T14:34:02;5.05;;;3.88;;
29338;SDS011;16335;52.334;13.628;2022-07-23T14:36:28;4.05;;;3.47;;
29338;SDS011;16335;52.334;13.628;2022-07-23T14:38:54;3.80;;;3.53;;
29338;SDS011;16335;52.334;13.628;2022-07-23T14:41:20;4.05;;;3.60;;
29338;SDS011;16335;52.334;13.628;2022-07-23T14:43:45;3.97;;;3.58;;
29338;SDS011;16335;52.334;13.628;2022-07-23T14:46:11;4.28;;;3.67;;
29338;SDS011;16335;52.334;13.628;2022-07-23T14:48:38;7.20;;;3.65;;
29338;SDS011;16335;52.334;13.628;2022-07-23T14:51:03;3.70;;;3.47;;
29338;SDS011;16335;52.334;13.628;2022-07-23T14:53:29;3.30;;;3.00;;
29338;SDS011;16335;52.334;13.628;2022-07-23T14:55:55;3.72;;;3.38;;
29338;SDS011;16335;52.334;13.628;2022-07-23T14:58:22;6.70;;;3.15;;
29338;SDS011;16335;52.334;13.628;2022-07-23T15:00:48;4.28;;;3.10;;
29338;SDS011;16335;52.334;13.628;2022-07-23T15:03:14;3.97;;;3.35;;
29338;SDS011;16335;52.334;13.628;2022-07-23T15:05:40;4.47;;;3.40;;
29338;SDS011;16335;52.334;13.628;2022-07-23T15:08:06;4.60;;;3.28;;